createdAt,value
2017-12-02T00:01:47.604Z,2.10
2017-12-02T00:04:16.563Z,2.10
2017-12-02T00:06:44.780Z,2.10
2017-12-02T00:09:12.977Z,2.10
2017-12-02T00:11:42.127Z,2.20
2017-12-02T00:14:11.143Z,2.10
2017-12-02T00:16:39.360Z,2.10
2017-12-02T00:19:07.560Z,2.10
2017-12-02T00:21:35.780Z,2.10
2017-12-02T00:24:04.026Z,2.10
2017-12-02T00:26:33.014Z,2.10
2017-12-02T00:29:01.260Z,2.00
2017-12-02T00:31:29.508Z,2.10
2017-12-02T00:33:57.777Z,2.10
2017-12-02T00:36:26.006Z,2.10
2017-12-02T00:38:54.199Z,2.10
2017-12-02T00:41:23.202Z,2.20
2017-12-02T00:43:51.416Z,2.10
2017-12-02T00:46:19.655Z,2.10
2017-12-02T00:48:48.676Z,2.10
2017-12-02T00:51:16.934Z,2.00
2017-12-02T00:53:45.171Z,2.10
2017-12-02T00:56:13.394Z,2.10
2017-12-02T00:58:41.607Z,2.00
2017-12-02T01:01:09.893Z,2.00
2017-12-02T01:03:38.108Z,2.00
2017-12-02T01:06:07.126Z,2.00
2017-12-02T01:08:35.456Z,1.90
2017-12-02T01:11:03.792Z,2.00
2017-12-02T01:13:32.031Z,2.10
2017-12-02T01:16:01.096Z,2.10
2017-12-02T01:18:29.344Z,2.10
2017-12-02T01:20:57.590Z,2.10
2017-12-02T01:23:25.786Z,2.10
2017-12-02T01:25:54.132Z,2.00
2017-12-02T01:28:23.130Z,1.90
2017-12-02T01:30:51.407Z,1.90
2017-12-02T01:33:20.427Z,2.00
2017-12-02T01:35:48.645Z,1.90
2017-12-02T01:38:16.906Z,2.00
2017-12-02T01:40:45.187Z,2.00
2017-12-02T01:43:13.429Z,2.00
2017-12-02T01:45:41.621Z,2.00
2017-12-02T01:48:09.866Z,2.00
2017-12-02T01:50:38.064Z,2.10
2017-12-02T01:53:06.282Z,2.10
2017-12-02T01:55:34.503Z,2.10
2017-12-02T01:58:02.765Z,2.10
2017-12-02T02:00:31.062Z,2.10
2017-12-02T02:02:59.281Z,2.10
2017-12-02T02:05:27.501Z,2.10
2017-12-02T02:07:55.780Z,2.10
2017-12-02T02:10:24.020Z,2.10
2017-12-02T02:12:52.262Z,2.10
2017-12-02T02:15:20.455Z,2.10
2017-12-02T02:17:48.679Z,2.10
2017-12-02T02:20:16.901Z,2.10
2017-12-02T02:22:45.130Z,2.10
2017-12-02T02:25:13.354Z,2.20
2017-12-02T02:27:41.617Z,2.20
2017-12-02T02:30:09.887Z,2.20
2017-12-02T02:32:38.076Z,2.20
2017-12-02T02:35:06.315Z,2.20
2017-12-02T02:37:34.557Z,2.20
2017-12-02T02:40:03.537Z,2.20
2017-12-02T02:42:31.774Z,2.10
2017-12-02T02:45:00.012Z,2.20
2017-12-02T02:47:29.014Z,2.10
2017-12-02T02:49:57.995Z,2.10
2017-12-02T02:52:26.990Z,2.10
2017-12-02T02:54:56.052Z,2.10
2017-12-02T02:57:24.272Z,2.10
2017-12-02T02:59:53.311Z,2.10
2017-12-02T03:02:21.591Z,2.10
2017-12-02T03:04:49.911Z,2.10
2017-12-02T03:07:18.900Z,2.10
2017-12-02T03:09:47.990Z,2.10
2017-12-02T03:12:16.304Z,2.10
2017-12-02T03:14:44.548Z,2.10
2017-12-02T03:17:13.590Z,2.10
2017-12-02T03:19:41.827Z,2.00
2017-12-02T03:22:10.832Z,2.00
2017-12-02T03:24:39.067Z,2.00
2017-12-02T03:27:07.287Z,2.00
2017-12-02T03:29:35.525Z,2.00
2017-12-02T03:32:03.774Z,2.00
2017-12-02T03:34:32.012Z,2.00
2017-12-02T03:37:00.215Z,2.00
2017-12-02T03:39:28.424Z,2.00
2017-12-02T03:41:56.659Z,2.00
2017-12-02T03:44:24.918Z,2.00
2017-12-02T03:46:53.142Z,2.00
2017-12-02T03:49:21.393Z,1.90
2017-12-02T03:51:49.622Z,1.90
2017-12-02T03:54:18.635Z,1.90
2017-12-02T03:56:47.652Z,1.90
2017-12-02T03:59:15.913Z,1.90
2017-12-02T04:01:44.193Z,1.90
2017-12-02T04:04:12.466Z,1.80
2017-12-02T04:06:40.720Z,1.80
2017-12-02T04:09:09.738Z,1.70
2017-12-02T04:11:38.917Z,1.60
2017-12-02T04:14:08.337Z,1.60
2017-12-02T04:16:36.675Z,1.60
2017-12-02T04:19:04.957Z,1.60
2017-12-02T04:21:33.297Z,1.50
2017-12-02T04:24:01.596Z,1.40
2017-12-02T04:26:29.975Z,1.30
2017-12-02T04:28:58.976Z,1.20
2017-12-02T04:31:27.254Z,1.20
2017-12-02T04:33:55.494Z,1.10
2017-12-02T04:36:23.695Z,1.10
2017-12-02T04:38:51.919Z,1.00
2017-12-02T04:41:20.131Z,1.00
2017-12-02T04:43:48.394Z,0.90
2017-12-02T04:46:16.663Z,0.90
2017-12-02T04:48:44.949Z,0.80
2017-12-02T04:51:13.206Z,0.80
2017-12-02T04:53:41.446Z,0.80
2017-12-02T04:56:09.711Z,0.70
2017-12-02T04:58:37.949Z,0.70
2017-12-02T05:01:06.148Z,0.70
2017-12-02T05:03:34.391Z,0.70
2017-12-02T05:06:02.587Z,0.70
2017-12-02T05:08:30.783Z,0.60
2017-12-02T05:10:59.029Z,0.60
2017-12-02T05:13:27.268Z,0.60
2017-12-02T05:15:56.259Z,0.60
2017-12-02T05:18:25.238Z,0.60
2017-12-02T05:20:53.529Z,0.50
2017-12-02T05:23:22.546Z,0.60
2017-12-02T05:25:50.784Z,0.50
2017-12-02T05:28:19.044Z,0.60
2017-12-02T05:30:48.154Z,0.60
2017-12-02T05:33:16.399Z,0.50
2017-12-02T05:35:44.642Z,0.50
2017-12-02T05:38:12.852Z,0.50
2017-12-02T05:40:41.122Z,0.50
2017-12-02T05:43:09.317Z,0.50
2017-12-02T05:45:37.541Z,0.50
2017-12-02T05:48:06.595Z,0.40
2017-12-02T05:50:34.806Z,0.30
2017-12-02T05:53:03.039Z,0.40
2017-12-02T05:55:31.339Z,0.30
2017-12-02T05:57:59.714Z,0.30
2017-12-02T06:00:27.938Z,0.30
2017-12-02T06:02:56.178Z,0.30
2017-12-02T06:05:25.140Z,0.20
2017-12-02T06:07:53.383Z,0.20
2017-12-02T06:10:21.966Z,0.20
2017-12-02T06:12:50.235Z,0.20
2017-12-02T06:15:18.495Z,0.20
2017-12-02T06:17:47.456Z,0.20
2017-12-02T06:20:15.710Z,0.10
2017-12-02T06:22:43.934Z,0.20
2017-12-02T06:25:12.969Z,0.30
2017-12-02T06:27:41.179Z,0.20
2017-12-02T06:30:10.411Z,0.20
2017-12-02T06:32:39.401Z,0.20
2017-12-02T06:35:08.377Z,0.20
2017-12-02T06:37:36.617Z,0.20
2017-12-02T06:40:04.818Z,0.20
2017-12-02T06:42:33.030Z,0.30
2017-12-02T06:45:01.974Z,0.40
2017-12-02T06:47:30.217Z,0.30
2017-12-02T06:49:58.470Z,0.40
2017-12-02T06:52:27.456Z,0.30
2017-12-02T06:54:56.415Z,0.40
2017-12-02T06:57:24.646Z,0.30
2017-12-02T06:59:52.823Z,0.40
2017-12-02T07:02:21.080Z,0.30
2017-12-02T07:04:50.062Z,0.40
2017-12-02T07:07:18.338Z,0.30
2017-12-02T07:09:47.324Z,0.40
2017-12-02T07:12:15.654Z,0.40
2017-12-02T07:14:43.943Z,0.40
2017-12-02T07:17:12.226Z,0.50
2017-12-02T07:19:41.255Z,0.50
2017-12-02T07:22:09.479Z,0.40
2017-12-02T07:24:37.663Z,0.50
2017-12-02T07:27:05.889Z,0.50
2017-12-02T07:29:34.535Z,0.50
2017-12-02T07:32:02.760Z,0.60
2017-12-02T07:34:31.690Z,0.80
2017-12-02T07:36:59.972Z,0.80
2017-12-02T07:39:28.192Z,0.90
2017-12-02T07:41:56.406Z,1.00
2017-12-02T07:44:24.628Z,1.10
2017-12-02T07:46:52.801Z,1.20
2017-12-02T07:49:21.002Z,1.20
2017-12-02T07:51:50.014Z,1.40
2017-12-02T07:54:18.254Z,1.40
2017-12-02T07:56:46.486Z,1.50
2017-12-02T07:59:14.809Z,1.50
2017-12-02T08:01:43.009Z,1.60
2017-12-02T08:04:11.263Z,1.70
2017-12-02T08:06:39.598Z,1.80
2017-12-02T08:09:07.806Z,1.80
2017-12-02T08:11:36.033Z,1.80
2017-12-02T08:14:04.210Z,1.90
2017-12-02T08:16:32.383Z,2.00
2017-12-02T08:19:00.547Z,2.00
2017-12-02T08:21:28.726Z,2.00
2017-12-02T08:23:56.965Z,2.00
2017-12-02T08:26:25.220Z,2.10
2017-12-02T08:28:53.427Z,2.10
2017-12-02T08:31:21.603Z,2.10
2017-12-02T08:33:50.728Z,2.20
2017-12-02T08:36:18.962Z,2.20
2017-12-02T08:38:47.165Z,2.30
2017-12-02T08:41:16.184Z,2.40
2017-12-02T08:43:44.369Z,2.40
2017-12-02T08:46:13.864Z,2.50
2017-12-02T08:48:42.107Z,2.60
2017-12-02T08:51:11.086Z,2.80
2017-12-02T08:53:39.262Z,2.80
2017-12-02T08:56:07.422Z,2.90
2017-12-02T08:58:36.378Z,3.10
2017-12-02T09:01:04.566Z,3.00
2017-12-02T09:03:32.780Z,3.20
2017-12-02T09:06:00.998Z,3.30
2017-12-02T09:08:29.179Z,3.40
2017-12-02T09:10:57.364Z,3.60
2017-12-02T09:13:25.537Z,3.80
2017-12-02T09:15:53.694Z,3.90
2017-12-02T09:18:21.877Z,4.00
2017-12-02T09:20:50.053Z,4.10
2017-12-02T09:23:18.266Z,4.10
2017-12-02T09:25:47.202Z,4.40
2017-12-02T09:28:15.414Z,4.30
2017-12-02T09:30:43.606Z,4.50
2017-12-02T09:33:12.586Z,4.70
2017-12-02T09:35:40.754Z,4.60
2017-12-02T09:38:08.938Z,4.80
2017-12-02T09:40:37.891Z,5.20
2017-12-02T09:43:06.062Z,5.10
2017-12-02T09:45:34.233Z,5.20
2017-12-02T09:48:02.393Z,5.40
2017-12-02T09:50:30.593Z,5.60
2017-12-02T09:53:00.857Z,5.70
2017-12-02T09:55:29.802Z,6.20
2017-12-02T09:57:57.982Z,6.10
2017-12-02T10:00:26.165Z,6.40
2017-12-02T10:02:54.359Z,6.70
2017-12-02T10:05:26.190Z,7.10
2017-12-02T10:08:10.491Z,7.30
2017-12-02T10:10:39.983Z,7.40
2017-12-02T10:13:18.353Z,7.40
2017-12-02T10:15:48.900Z,7.60
2017-12-02T10:18:17.776Z,7.60
2017-12-02T10:20:46.042Z,7.80
2017-12-02T10:23:14.685Z,8.10
2017-12-02T10:26:04.449Z,8.40
2017-12-02T10:29:07.961Z,9.20
2017-12-02T10:31:58.889Z,9.50
2017-12-02T10:35:06.016Z,9.40
2017-12-02T10:40:35.708Z,12.80
2017-12-02T10:43:04.693Z,15.20
2017-12-02T10:45:35.328Z,15.30
2017-12-02T10:48:06.437Z,15.20
2017-12-02T10:50:35.575Z,15.80
2017-12-02T10:53:04.522Z,16.50
2017-12-02T10:55:32.755Z,16.40
2017-12-02T10:58:01.729Z,18.40
2017-12-02T11:00:31.155Z,18.90
2017-12-02T11:02:59.337Z,18.80
2017-12-02T11:05:27.523Z,18.90
2017-12-02T11:07:55.697Z,18.60
2017-12-02T11:10:23.886Z,18.40
2017-12-02T11:12:52.095Z,17.80
2017-12-02T11:15:20.295Z,17.70
2017-12-02T11:17:49.250Z,16.20
2017-12-02T11:20:17.442Z,16.10
2017-12-02T11:22:45.671Z,15.90
2017-12-02T11:25:13.886Z,15.60
2017-12-02T11:27:42.092Z,15.70
2017-12-02T11:30:11.163Z,18.00
2017-12-02T11:32:39.351Z,18.00
2017-12-02T11:35:08.295Z,19.80
2017-12-02T11:37:36.483Z,19.70
2017-12-02T11:40:04.757Z,20.50
2017-12-02T11:42:32.946Z,21.40
2017-12-02T11:45:01.221Z,21.60
2017-12-02T11:47:29.484Z,21.90
2017-12-02T11:49:57.662Z,22.20
2017-12-02T11:52:25.868Z,22.30
2017-12-02T11:54:54.829Z,22.00
2017-12-02T11:57:23.016Z,21.90
2017-12-02T11:59:51.228Z,20.70
2017-12-02T12:02:20.222Z,19.50
2017-12-02T12:04:49.176Z,19.40
2017-12-02T12:07:17.411Z,19.30
2017-12-02T12:09:45.678Z,19.40
2017-12-02T12:12:13.886Z,19.20
2017-12-02T12:14:42.084Z,18.30
2017-12-02T12:17:10.309Z,17.90
2017-12-02T12:19:38.535Z,18.10
2017-12-02T12:22:06.749Z,18.60
2017-12-02T12:24:34.980Z,18.70
2017-12-02T12:27:03.188Z,19.00
2017-12-02T12:29:32.163Z,18.90
2017-12-02T12:32:00.361Z,18.80
2017-12-02T12:34:29.315Z,19.30
2017-12-02T12:36:57.573Z,19.30
2017-12-02T12:39:25.754Z,20.40
2017-12-02T12:41:53.954Z,20.60
2017-12-02T12:44:22.160Z,20.30
2017-12-02T12:46:50.378Z,20.30
2017-12-02T12:49:18.557Z,20.10
2017-12-02T12:51:46.774Z,19.90
2017-12-02T12:54:15.802Z,21.20
2017-12-02T12:56:43.993Z,21.20
2017-12-02T12:59:12.221Z,21.60
2017-12-02T13:01:41.167Z,21.30
2017-12-02T13:04:09.411Z,21.20
2017-12-02T13:06:37.599Z,21.00
2017-12-02T13:09:05.830Z,19.20
2017-12-02T13:11:34.797Z,17.90
2017-12-02T13:14:02.976Z,17.90
2017-12-02T13:16:31.168Z,17.20
2017-12-02T13:19:00.137Z,15.30
2017-12-02T13:21:28.335Z,15.20
2017-12-02T13:23:56.544Z,13.90
2017-12-02T13:26:24.728Z,12.80
2017-12-02T13:28:52.954Z,12.20
2017-12-02T13:31:21.162Z,11.80
2017-12-02T13:33:49.344Z,12.00
2017-12-02T13:36:17.544Z,11.40
2017-12-02T13:38:45.815Z,10.50
2017-12-02T13:41:14.072Z,9.80
2017-12-02T13:43:42.265Z,10.00
2017-12-02T13:46:10.475Z,10.30
2017-12-02T13:48:38.708Z,10.80
2017-12-02T13:51:06.939Z,11.00
2017-12-02T13:53:35.191Z,10.30
2017-12-02T13:56:03.380Z,9.90
2017-12-02T13:58:31.599Z,9.10
2017-12-02T14:00:59.794Z,9.40
2017-12-02T14:03:28.072Z,10.60
2017-12-02T14:05:56.303Z,11.30
2017-12-02T14:08:25.277Z,10.50
2017-12-02T14:10:53.489Z,10.40
2017-12-02T14:13:21.717Z,9.70
2017-12-02T14:15:49.907Z,9.30
2017-12-02T14:18:18.110Z,9.40
2017-12-02T14:20:47.057Z,8.70
2017-12-02T14:23:15.228Z,8.60
2017-12-02T14:25:43.424Z,8.20
2017-12-02T14:28:11.611Z,7.70
2017-12-02T14:30:40.585Z,6.80
2017-12-02T14:33:08.792Z,6.70
2017-12-02T14:35:37.992Z,6.60
2017-12-02T14:38:06.924Z,6.60
2017-12-02T14:40:35.119Z,6.50
2017-12-02T14:43:03.300Z,6.50
2017-12-02T14:45:31.488Z,6.40
2017-12-02T14:47:59.679Z,6.20
2017-12-02T14:50:28.606Z,5.70
2017-12-02T14:52:56.854Z,5.70
2017-12-02T14:55:25.042Z,5.70
2017-12-02T14:57:53.231Z,5.60
2017-12-02T15:00:21.403Z,5.30
2017-12-02T15:02:49.630Z,5.10
2017-12-02T15:05:18.637Z,4.80
2017-12-02T15:07:47.805Z,4.70
2017-12-02T15:10:16.027Z,4.60
2017-12-02T15:12:44.243Z,4.60
2017-12-02T15:15:12.554Z,4.40
2017-12-02T15:17:41.637Z,4.30
2017-12-02T15:20:09.995Z,4.20
2017-12-02T15:22:38.423Z,4.20
2017-12-02T15:25:07.383Z,4.20
2017-12-02T15:27:35.614Z,4.10
2017-12-02T15:30:04.666Z,4.20
2017-12-02T15:32:32.843Z,4.20
2017-12-02T15:35:01.058Z,4.10
2017-12-02T15:37:29.381Z,4.10
2017-12-02T15:39:57.594Z,4.20
2017-12-02T15:42:26.558Z,4.10
2017-12-02T15:44:54.773Z,4.00
2017-12-02T15:47:22.997Z,4.00
2017-12-02T15:49:52.349Z,4.00
2017-12-02T15:52:21.310Z,4.00
2017-12-02T15:54:50.476Z,3.90
2017-12-02T15:57:18.661Z,3.90
2017-12-02T15:59:46.855Z,3.90
2017-12-02T16:02:15.052Z,3.90
2017-12-02T16:04:44.030Z,3.90
2017-12-02T16:07:13.156Z,3.90
2017-12-02T16:09:41.513Z,3.80
2017-12-02T16:12:10.472Z,3.80
2017-12-02T16:14:38.684Z,3.70
2017-12-02T16:17:07.745Z,3.70
2017-12-02T16:19:35.950Z,3.60
2017-12-02T16:22:04.957Z,3.70
2017-12-02T16:24:33.987Z,3.60
2017-12-02T16:27:02.237Z,3.60
2017-12-02T16:29:30.504Z,3.70
2017-12-02T16:31:58.808Z,3.60
2017-12-02T16:34:27.058Z,3.50
2017-12-02T16:36:56.129Z,3.40
2017-12-02T16:39:24.457Z,3.30
2017-12-02T16:41:52.720Z,3.30
2017-12-02T16:44:20.962Z,3.30
2017-12-02T16:46:49.190Z,3.20
2017-12-02T16:49:17.466Z,3.10
2017-12-02T16:51:45.667Z,3.10
2017-12-02T16:54:13.948Z,3.00
2017-12-02T16:56:42.206Z,3.00
2017-12-02T16:59:10.486Z,2.90
2017-12-02T17:01:38.683Z,2.90
2017-12-02T17:04:06.943Z,2.80
2017-12-02T17:06:35.145Z,2.80
2017-12-02T17:09:03.404Z,2.70
2017-12-02T17:11:31.595Z,2.70
2017-12-02T17:14:00.581Z,2.60
2017-12-02T17:16:28.801Z,2.60
2017-12-02T17:18:56.989Z,2.50
2017-12-02T17:21:25.242Z,2.50
2017-12-02T17:23:54.220Z,2.40
2017-12-02T17:26:23.281Z,2.30
2017-12-02T17:28:51.569Z,2.30
2017-12-02T17:31:19.805Z,2.30
2017-12-02T17:33:48.040Z,2.30
2017-12-02T17:36:17.093Z,2.20
2017-12-02T17:38:45.304Z,2.10
2017-12-02T17:41:13.552Z,2.20
2017-12-02T17:43:42.554Z,2.10
2017-12-02T17:46:10.834Z,2.00
2017-12-02T17:48:39.075Z,2.00
2017-12-02T17:51:07.354Z,2.00
2017-12-02T17:53:35.569Z,1.90
2017-12-02T17:56:03.806Z,1.90
2017-12-02T17:58:32.074Z,1.90
2017-12-02T18:01:00.314Z,1.80
2017-12-02T18:03:28.534Z,1.80
2017-12-02T18:05:56.724Z,1.70
2017-12-02T18:08:24.945Z,1.70
2017-12-02T18:10:53.983Z,1.60
2017-12-02T18:13:22.238Z,1.50
2017-12-02T18:15:52.952Z,1.60
2017-12-02T18:18:22.023Z,1.60
2017-12-02T18:20:50.261Z,1.50
2017-12-02T18:23:18.489Z,1.50
2017-12-02T18:25:46.663Z,1.50
2017-12-02T18:28:14.884Z,1.50
2017-12-02T18:30:43.123Z,1.40
2017-12-02T18:33:12.112Z,1.40
2017-12-02T18:35:41.118Z,1.30
2017-12-02T18:38:10.067Z,1.30
2017-12-02T18:40:38.286Z,1.20
2017-12-02T18:43:07.274Z,1.30
2017-12-02T18:45:36.267Z,1.20
2017-12-02T18:48:05.264Z,1.20
2017-12-02T18:50:34.384Z,1.20
2017-12-02T18:53:02.594Z,1.10
2017-12-02T18:55:30.838Z,1.20
2017-12-02T18:57:59.089Z,1.20
2017-12-02T19:00:28.042Z,1.20
2017-12-02T19:02:56.260Z,1.10
2017-12-02T19:05:25.193Z,1.10
2017-12-02T19:07:53.402Z,1.00
2017-12-02T19:10:21.630Z,1.00
2017-12-02T19:12:49.899Z,1.00
2017-12-02T19:15:18.140Z,1.10
2017-12-02T19:17:46.440Z,1.10
2017-12-02T19:20:14.636Z,1.10
2017-12-02T19:22:42.878Z,1.10
2017-12-02T19:25:11.857Z,1.00
2017-12-02T19:27:40.057Z,0.90
2017-12-02T19:30:09.032Z,1.00
2017-12-02T19:32:37.211Z,0.90
2017-12-02T19:35:06.216Z,1.00
2017-12-02T19:37:35.168Z,0.90
2017-12-02T19:40:03.399Z,0.80
2017-12-02T19:42:31.576Z,0.90
2017-12-02T19:44:59.785Z,0.90
2017-12-02T19:47:27.955Z,0.90
2017-12-02T19:49:56.164Z,0.90
2017-12-02T19:52:24.342Z,0.80
2017-12-02T19:54:53.399Z,0.80
2017-12-02T19:57:21.650Z,0.70
2017-12-02T19:59:49.871Z,0.80
2017-12-02T20:02:18.102Z,0.70
2017-12-02T20:04:46.328Z,0.70
2017-12-02T20:07:14.563Z,0.70
2017-12-02T20:09:42.827Z,0.70
2017-12-02T20:12:11.044Z,0.70
2017-12-02T20:14:39.241Z,0.70
2017-12-02T20:17:08.237Z,0.70
2017-12-02T20:19:37.199Z,0.60
2017-12-02T20:22:05.402Z,0.50
2017-12-02T20:24:33.601Z,0.60
2017-12-02T20:27:01.844Z,0.70
2017-12-02T20:29:30.038Z,0.70
2017-12-02T20:31:58.966Z,0.70
2017-12-02T20:34:27.138Z,0.70
2017-12-02T20:36:55.328Z,0.80
2017-12-02T20:39:23.526Z,0.80
2017-12-02T20:41:51.731Z,0.90
2017-12-02T20:44:20.701Z,1.00
2017-12-02T20:46:48.862Z,0.90
2017-12-02T20:49:17.035Z,1.00
2017-12-02T20:51:45.213Z,1.10
2017-12-02T20:54:14.218Z,1.10
2017-12-02T20:56:42.389Z,1.00
2017-12-02T20:59:10.545Z,1.10
2017-12-02T21:01:38.715Z,1.00
2017-12-02T21:04:06.901Z,1.00
2017-12-02T21:06:35.066Z,0.90
2017-12-02T21:09:03.247Z,0.90
2017-12-02T21:11:31.451Z,0.90
2017-12-02T21:13:59.691Z,0.90
2017-12-02T21:16:27.899Z,0.90
2017-12-02T21:18:56.126Z,0.90
2017-12-02T21:21:24.312Z,0.90
2017-12-02T21:23:52.473Z,0.80
2017-12-02T21:26:20.630Z,0.80
2017-12-02T21:28:49.595Z,0.70
2017-12-02T21:31:17.773Z,0.70
2017-12-02T21:33:46.718Z,0.60
2017-12-02T21:36:14.908Z,0.60
2017-12-02T21:38:43.079Z,0.60
2017-12-02T21:41:11.289Z,0.60
2017-12-02T21:43:39.507Z,0.60
2017-12-02T21:46:07.761Z,0.50
2017-12-02T21:48:36.717Z,0.40
2017-12-02T21:51:04.927Z,0.40
2017-12-02T21:53:33.868Z,0.40
2017-12-02T21:56:02.038Z,0.30
2017-12-02T21:58:30.272Z,0.30
2017-12-02T22:00:58.464Z,0.30
2017-12-02T22:03:26.626Z,0.40
2017-12-02T22:05:54.822Z,0.30
2017-12-02T22:08:22.991Z,0.30
2017-12-02T22:10:51.222Z,0.30
2017-12-02T22:13:19.943Z,0.30
2017-12-02T22:15:48.179Z,0.30
2017-12-02T22:18:16.442Z,0.30
2017-12-02T22:20:44.636Z,0.30
2017-12-02T22:23:12.821Z,0.20
2017-12-02T22:25:41.775Z,0.20
2017-12-02T22:28:09.996Z,0.10
2017-12-02T22:30:38.976Z,0.10
2017-12-02T22:33:07.996Z,0.00
2017-12-02T22:35:36.259Z,-0.10
2017-12-02T22:38:05.250Z,-0.20
2017-12-02T22:40:34.234Z,-0.30
2017-12-02T22:43:02.450Z,-0.40
2017-12-02T22:45:30.676Z,-0.50
2017-12-02T22:47:58.863Z,-0.60
2017-12-02T22:50:27.832Z,-0.60
2017-12-02T22:52:56.055Z,-0.70
2017-12-02T22:55:24.242Z,-0.60
2017-12-02T22:57:52.431Z,-0.60
2017-12-02T23:00:20.684Z,-0.70
2017-12-02T23:02:48.930Z,-0.60
2017-12-02T23:05:17.109Z,-0.60
2017-12-02T23:07:46.115Z,-0.60
2017-12-02T23:10:15.112Z,-0.60
2017-12-02T23:12:44.079Z,-0.50
2017-12-02T23:15:12.291Z,-0.60
2017-12-02T23:17:40.500Z,-0.50
2017-12-02T23:20:08.682Z,-0.40
2017-12-02T23:22:36.907Z,-0.40
2017-12-02T23:25:05.102Z,-0.40
2017-12-02T23:27:33.302Z,-0.20
2017-12-02T23:30:01.601Z,-0.10
2017-12-02T23:32:29.807Z,-0.10
2017-12-02T23:34:58.002Z,-0.20
2017-12-02T23:37:26.195Z,-0.10
2017-12-02T23:39:54.379Z,-0.10
2017-12-02T23:42:22.626Z,0.00
2017-12-02T23:44:51.601Z,-0.10
2017-12-02T23:47:20.557Z,-0.10
2017-12-02T23:49:48.744Z,-0.20
2017-12-02T23:52:16.943Z,-0.20
2017-12-02T23:54:45.918Z,-0.30
2017-12-02T23:57:14.175Z,-0.30
2017-12-02T23:59:42.557Z,-0.30
